sensor_id;sensor_type;location;lat;lon;timestamp;P1;durP1;ratioP1;P2;durP2;ratioP2
10041;SDS011;5061;49.068;12.058;2022-12-07T00:00:16;8.60;;;6.13;;
10041;SDS011;5061;49.068;12.058;2022-12-07T00:03:37;7.07;;;5.60;;
10041;SDS011;5061;49.068;12.058;2022-12-07T00:06:59;9.07;;;6.70;;
10041;SDS011;5061;49.068;12.058;2022-12-07T00:10:20;7.83;;;5.23;;
10041;SDS011;5061;49.068;12.058;2022-12-07T00:13:41;8.97;;;6.00;;
10041;SDS011;5061;49.068;12.058;2022-12-07T00:17:01;10.70;;;6.80;;
10041;SDS011;5061;49.068;12.058;2022-12-07T00:20:22;9.43;;;6.10;;
10041;SDS011;5061;49.068;12.058;2022-12-07T00:23:43;9.23;;;6.60;;
10041;SDS011;5061;49.068;12.058;2022-12-07T00:27:05;8.63;;;5.90;;
10041;SDS011;5061;49.068;12.058;2022-12-07T00:30:25;7.40;;;5.67;;
10041;SDS011;5061;49.068;12.058;2022-12-07T00:33:46;8.03;;;5.70;;
10041;SDS011;5061;49.068;12.058;2022-12-07T00:37:07;7.57;;;5.63;;
10041;SDS011;5061;49.068;12.058;2022-12-07T00:40:27;9.07;;;6.10;;
10041;SDS011;5061;49.068;12.058;2022-12-07T00:43:48;8.33;;;6.33;;
10041;SDS011;5061;49.068;12.058;2022-12-07T00:47:09;7.93;;;6.07;;
10041;SDS011;5061;49.068;12.058;2022-12-07T00:50:30;7.83;;;6.20;;
10041;SDS011;5061;49.068;12.058;2022-12-07T00:53:51;9.83;;;6.73;;
10041;SDS011;5061;49.068;12.058;2022-12-07T00:57:12;7.37;;;5.80;;
10041;SDS011;5061;49.068;12.058;2022-12-07T01:00:33;7.80;;;5.70;;
10041;SDS011;5061;49.068;12.058;2022-12-07T01:03:56;7.10;;;5.43;;
10041;SDS011;5061;49.068;12.058;2022-12-07T01:07:17;8.93;;;6.37;;
10041;SDS011;5061;49.068;12.058;2022-12-07T01:10:37;7.77;;;5.97;;
10041;SDS011;5061;49.068;12.058;2022-12-07T01:13:59;8.30;;;6.83;;
10041;SDS011;5061;49.068;12.058;2022-12-07T01:17:20;9.83;;;7.67;;
10041;SDS011;5061;49.068;12.058;2022-12-07T01:20:41;11.90;;;6.70;;
10041;SDS011;5061;49.068;12.058;2022-12-07T01:24:02;12.60;;;7.70;;
10041;SDS011;5061;49.068;12.058;2022-12-07T01:27:27;10.50;;;7.70;;
10041;SDS011;5061;49.068;12.058;2022-12-07T01:31:07;11.43;;;7.23;;
10041;SDS011;5061;49.068;12.058;2022-12-07T01:34:32;7.77;;;6.03;;
10041;SDS011;5061;49.068;12.058;2022-12-07T01:37:52;9.90;;;7.07;;
10041;SDS011;5061;49.068;12.058;2022-12-07T01:41:13;13.77;;;8.40;;
10041;SDS011;5061;49.068;12.058;2022-12-07T01:45:15;10.60;;;7.50;;
10041;SDS011;5061;49.068;12.058;2022-12-07T01:48:38;11.13;;;7.77;;
10041;SDS011;5061;49.068;12.058;2022-12-07T01:55:37;14.90;;;8.30;;
10041;SDS011;5061;49.068;12.058;2022-12-07T01:59:00;12.43;;;8.83;;
10041;SDS011;5061;49.068;12.058;2022-12-07T02:02:25;11.77;;;8.60;;
10041;SDS011;5061;49.068;12.058;2022-12-07T02:05:48;11.10;;;8.17;;
10041;SDS011;5061;49.068;12.058;2022-12-07T02:09:10;11.70;;;8.87;;
10041;SDS011;5061;49.068;12.058;2022-12-07T02:12:31;11.30;;;8.00;;
10041;SDS011;5061;49.068;12.058;2022-12-07T02:15:57;11.20;;;7.77;;
10041;SDS011;5061;49.068;12.058;2022-12-07T02:23:10;11.17;;;8.10;;
10041;SDS011;5061;49.068;12.058;2022-12-07T02:30:48;11.63;;;8.20;;
10041;SDS011;5061;49.068;12.058;2022-12-07T02:34:12;11.60;;;8.47;;
10041;SDS011;5061;49.068;12.058;2022-12-07T02:41:38;11.00;;;7.97;;
10041;SDS011;5061;49.068;12.058;2022-12-07T02:45:03;10.57;;;7.30;;
10041;SDS011;5061;49.068;12.058;2022-12-07T02:48:26;9.90;;;6.90;;
10041;SDS011;5061;49.068;12.058;2022-12-07T02:51:48;13.57;;;7.67;;
10041;SDS011;5061;49.068;12.058;2022-12-07T02:55:08;12.57;;;9.17;;
10041;SDS011;5061;49.068;12.058;2022-12-07T03:09:48;11.97;;;8.20;;
10041;SDS011;5061;49.068;12.058;2022-12-07T03:16:31;14.07;;;8.67;;
10041;SDS011;5061;49.068;12.058;2022-12-07T03:19:57;12.40;;;9.30;;
10041;SDS011;5061;49.068;12.058;2022-12-07T03:23:20;13.57;;;9.63;;
10041;SDS011;5061;49.068;12.058;2022-12-07T03:26:47;12.03;;;7.50;;
10041;SDS011;5061;49.068;12.058;2022-12-07T03:30:19;12.73;;;8.70;;
10041;SDS011;5061;49.068;12.058;2022-12-07T03:33:50;12.20;;;8.10;;
10041;SDS011;5061;49.068;12.058;2022-12-07T03:37:19;11.93;;;8.03;;
10041;SDS011;5061;49.068;12.058;2022-12-07T03:41:11;12.53;;;8.53;;
10041;SDS011;5061;49.068;12.058;2022-12-07T03:44:35;10.20;;;7.93;;
10041;SDS011;5061;49.068;12.058;2022-12-07T03:48:05;12.53;;;7.77;;
10041;SDS011;5061;49.068;12.058;2022-12-07T03:55:39;11.13;;;7.57;;
10041;SDS011;5061;49.068;12.058;2022-12-07T03:59:02;11.20;;;7.57;;
10041;SDS011;5061;49.068;12.058;2022-12-07T04:02:23;11.93;;;7.77;;
10041;SDS011;5061;49.068;12.058;2022-12-07T04:05:46;10.77;;;7.10;;
10041;SDS011;5061;49.068;12.058;2022-12-07T04:09:10;12.03;;;8.10;;
10041;SDS011;5061;49.068;12.058;2022-12-07T04:12:30;13.33;;;8.70;;
10041;SDS011;5061;49.068;12.058;2022-12-07T04:15:51;11.27;;;7.60;;
10041;SDS011;5061;49.068;12.058;2022-12-07T04:19:12;11.37;;;7.63;;
10041;SDS011;5061;49.068;12.058;2022-12-07T04:22:32;11.43;;;7.63;;
10041;SDS011;5061;49.068;12.058;2022-12-07T04:25:53;10.83;;;7.90;;
10041;SDS011;5061;49.068;12.058;2022-12-07T04:29:14;13.13;;;8.80;;
10041;SDS011;5061;49.068;12.058;2022-12-07T04:32:35;14.00;;;8.43;;
10041;SDS011;5061;49.068;12.058;2022-12-07T04:35:56;11.50;;;8.20;;
10041;SDS011;5061;49.068;12.058;2022-12-07T04:39:19;13.33;;;8.50;;
10041;SDS011;5061;49.068;12.058;2022-12-07T04:42:41;13.20;;;8.90;;
10041;SDS011;5061;49.068;12.058;2022-12-07T04:46:04;16.80;;;9.80;;
10041;SDS011;5061;49.068;12.058;2022-12-07T04:49:25;13.53;;;8.33;;
10041;SDS011;5061;49.068;12.058;2022-12-07T04:52:45;12.33;;;8.80;;
10041;SDS011;5061;49.068;12.058;2022-12-07T04:56:06;10.33;;;7.53;;
10041;SDS011;5061;49.068;12.058;2022-12-07T04:59:27;11.97;;;8.20;;
10041;SDS011;5061;49.068;12.058;2022-12-07T05:02:47;16.57;;;9.90;;
10041;SDS011;5061;49.068;12.058;2022-12-07T05:06:08;13.10;;;8.97;;
10041;SDS011;5061;49.068;12.058;2022-12-07T05:09:30;11.33;;;7.80;;
10041;SDS011;5061;49.068;12.058;2022-12-07T05:12:50;10.83;;;7.53;;
10041;SDS011;5061;49.068;12.058;2022-12-07T05:16:11;12.90;;;8.27;;
10041;SDS011;5061;49.068;12.058;2022-12-07T05:19:31;13.53;;;9.23;;
10041;SDS011;5061;49.068;12.058;2022-12-07T05:22:52;12.03;;;6.80;;
10041;SDS011;5061;49.068;12.058;2022-12-07T05:26:16;12.03;;;6.23;;
10041;SDS011;5061;49.068;12.058;2022-12-07T05:29:37;11.57;;;6.40;;
10041;SDS011;5061;49.068;12.058;2022-12-07T05:32:58;8.70;;;6.70;;
10041;SDS011;5061;49.068;12.058;2022-12-07T05:36:18;12.40;;;8.13;;
10041;SDS011;5061;49.068;12.058;2022-12-07T05:39:39;12.13;;;7.50;;
10041;SDS011;5061;49.068;12.058;2022-12-07T05:43:02;13.13;;;8.10;;
10041;SDS011;5061;49.068;12.058;2022-12-07T05:46:23;14.23;;;9.43;;
10041;SDS011;5061;49.068;12.058;2022-12-07T05:49:44;16.00;;;10.40;;
10041;SDS011;5061;49.068;12.058;2022-12-07T05:53:04;18.43;;;10.83;;
10041;SDS011;5061;49.068;12.058;2022-12-07T05:56:25;14.70;;;9.27;;
10041;SDS011;5061;49.068;12.058;2022-12-07T05:59:46;16.33;;;10.37;;
10041;SDS011;5061;49.068;12.058;2022-12-07T06:03:07;16.00;;;10.87;;
10041;SDS011;5061;49.068;12.058;2022-12-07T06:06:28;18.10;;;10.93;;
10041;SDS011;5061;49.068;12.058;2022-12-07T06:09:49;18.10;;;11.30;;
10041;SDS011;5061;49.068;12.058;2022-12-07T06:13:09;17.33;;;10.63;;
10041;SDS011;5061;49.068;12.058;2022-12-07T06:16:30;19.50;;;11.33;;
10041;SDS011;5061;49.068;12.058;2022-12-07T06:19:51;21.27;;;11.40;;
10041;SDS011;5061;49.068;12.058;2022-12-07T06:23:11;19.60;;;11.00;;
10041;SDS011;5061;49.068;12.058;2022-12-07T06:26:35;18.70;;;11.40;;
10041;SDS011;5061;49.068;12.058;2022-12-07T06:29:55;19.33;;;10.97;;
10041;SDS011;5061;49.068;12.058;2022-12-07T06:33:16;23.10;;;13.00;;
10041;SDS011;5061;49.068;12.058;2022-12-07T06:36:36;17.00;;;10.20;;
10041;SDS011;5061;49.068;12.058;2022-12-07T06:39:57;17.70;;;10.43;;
10041;SDS011;5061;49.068;12.058;2022-12-07T06:43:18;15.23;;;8.83;;
10041;SDS011;5061;49.068;12.058;2022-12-07T06:46:38;19.60;;;10.50;;
10041;SDS011;5061;49.068;12.058;2022-12-07T06:49:59;18.80;;;11.17;;
10041;SDS011;5061;49.068;12.058;2022-12-07T06:53:20;18.23;;;10.20;;
10041;SDS011;5061;49.068;12.058;2022-12-07T06:56:41;18.30;;;10.30;;
10041;SDS011;5061;49.068;12.058;2022-12-07T07:00:02;17.47;;;9.30;;
10041;SDS011;5061;49.068;12.058;2022-12-07T07:03:23;17.13;;;10.43;;
10041;SDS011;5061;49.068;12.058;2022-12-07T07:06:44;21.50;;;11.53;;
10041;SDS011;5061;49.068;12.058;2022-12-07T07:10:05;20.10;;;11.70;;
10041;SDS011;5061;49.068;12.058;2022-12-07T07:13:26;22.30;;;12.30;;
10041;SDS011;5061;49.068;12.058;2022-12-07T07:16:47;17.13;;;10.17;;
10041;SDS011;5061;49.068;12.058;2022-12-07T07:20:07;17.43;;;10.30;;
10041;SDS011;5061;49.068;12.058;2022-12-07T07:23:29;16.97;;;10.80;;
10041;SDS011;5061;49.068;12.058;2022-12-07T07:26:49;16.63;;;9.93;;
10041;SDS011;5061;49.068;12.058;2022-12-07T07:30:10;15.90;;;8.20;;
10041;SDS011;5061;49.068;12.058;2022-12-07T07:33:31;13.10;;;7.90;;
10041;SDS011;5061;49.068;12.058;2022-12-07T07:36:52;10.70;;;6.47;;
10041;SDS011;5061;49.068;12.058;2022-12-07T07:40:13;11.07;;;6.07;;
10041;SDS011;5061;49.068;12.058;2022-12-07T07:43:33;9.43;;;6.03;;
10041;SDS011;5061;49.068;12.058;2022-12-07T07:46:54;7.30;;;4.40;;
10041;SDS011;5061;49.068;12.058;2022-12-07T07:50:15;8.87;;;5.50;;
10041;SDS011;5061;49.068;12.058;2022-12-07T07:53:36;12.80;;;7.30;;
10041;SDS011;5061;49.068;12.058;2022-12-07T07:56:56;11.70;;;6.90;;
10041;SDS011;5061;49.068;12.058;2022-12-07T08:00:17;10.67;;;6.87;;
10041;SDS011;5061;49.068;12.058;2022-12-07T08:03:38;15.13;;;9.03;;
10041;SDS011;5061;49.068;12.058;2022-12-07T08:07:01;13.53;;;8.17;;
10041;SDS011;5061;49.068;12.058;2022-12-07T08:10:22;16.77;;;9.70;;
10041;SDS011;5061;49.068;12.058;2022-12-07T08:13:44;17.33;;;9.63;;
10041;SDS011;5061;49.068;12.058;2022-12-07T08:17:06;20.50;;;12.67;;
10041;SDS011;5061;49.068;12.058;2022-12-07T08:20:29;21.50;;;11.80;;
10041;SDS011;5061;49.068;12.058;2022-12-07T08:23:54;20.00;;;10.83;;
10041;SDS011;5061;49.068;12.058;2022-12-07T08:27:14;18.03;;;11.20;;
10041;SDS011;5061;49.068;12.058;2022-12-07T08:30:35;19.33;;;10.97;;
10041;SDS011;5061;49.068;12.058;2022-12-07T08:33:55;18.13;;;10.47;;
10041;SDS011;5061;49.068;12.058;2022-12-07T08:37:19;19.40;;;10.70;;
10041;SDS011;5061;49.068;12.058;2022-12-07T08:40:40;19.33;;;12.03;;
10041;SDS011;5061;49.068;12.058;2022-12-07T08:44:03;24.53;;;11.53;;
10041;SDS011;5061;49.068;12.058;2022-12-07T08:47:25;16.83;;;9.77;;
10041;SDS011;5061;49.068;12.058;2022-12-07T08:50:51;20.63;;;10.47;;
10041;SDS011;5061;49.068;12.058;2022-12-07T08:54:13;20.17;;;10.13;;
10041;SDS011;5061;49.068;12.058;2022-12-07T08:57:36;18.60;;;10.60;;
10041;SDS011;5061;49.068;12.058;2022-12-07T09:00:58;15.13;;;9.43;;
10041;SDS011;5061;49.068;12.058;2022-12-07T09:04:19;17.17;;;9.73;;
10041;SDS011;5061;49.068;12.058;2022-12-07T09:07:41;18.90;;;10.10;;
10041;SDS011;5061;49.068;12.058;2022-12-07T09:11:21;18.77;;;9.60;;
10041;SDS011;5061;49.068;12.058;2022-12-07T09:14:44;17.07;;;9.40;;
10041;SDS011;5061;49.068;12.058;2022-12-07T09:18:05;16.50;;;10.10;;
10041;SDS011;5061;49.068;12.058;2022-12-07T09:21:25;18.73;;;10.87;;
10041;SDS011;5061;49.068;12.058;2022-12-07T09:24:46;14.87;;;8.60;;
10041;SDS011;5061;49.068;12.058;2022-12-07T09:28:07;16.20;;;9.30;;
10041;SDS011;5061;49.068;12.058;2022-12-07T09:31:28;14.67;;;8.97;;
10041;SDS011;5061;49.068;12.058;2022-12-07T09:34:49;15.47;;;8.90;;
10041;SDS011;5061;49.068;12.058;2022-12-07T09:38:12;16.40;;;9.33;;
10041;SDS011;5061;49.068;12.058;2022-12-07T09:41:33;19.10;;;10.70;;
10041;SDS011;5061;49.068;12.058;2022-12-07T09:45:02;21.67;;;11.00;;
10041;SDS011;5061;49.068;12.058;2022-12-07T09:48:30;20.40;;;11.50;;
10041;SDS011;5061;49.068;12.058;2022-12-07T09:52:00;18.70;;;10.20;;
10041;SDS011;5061;49.068;12.058;2022-12-07T09:55:26;17.57;;;10.27;;
10041;SDS011;5061;49.068;12.058;2022-12-07T09:58:49;14.70;;;9.40;;
10041;SDS011;5061;49.068;12.058;2022-12-07T10:05:56;15.00;;;9.53;;
10041;SDS011;5061;49.068;12.058;2022-12-07T10:09:18;18.40;;;10.13;;
10041;SDS011;5061;49.068;12.058;2022-12-07T10:12:54;17.37;;;10.33;;
10041;SDS011;5061;49.068;12.058;2022-12-07T10:16:39;19.20;;;11.47;;
10041;SDS011;5061;49.068;12.058;2022-12-07T10:23:58;17.67;;;10.60;;
10041;SDS011;5061;49.068;12.058;2022-12-07T10:27:31;15.60;;;9.30;;
10041;SDS011;5061;49.068;12.058;2022-12-07T10:30:55;13.10;;;8.50;;
10041;SDS011;5061;49.068;12.058;2022-12-07T10:34:21;20.57;;;11.30;;
10041;SDS011;5061;49.068;12.058;2022-12-07T10:37:43;18.17;;;10.73;;
10041;SDS011;5061;49.068;12.058;2022-12-07T10:41:06;17.67;;;10.80;;
10041;SDS011;5061;49.068;12.058;2022-12-07T10:44:31;14.70;;;8.63;;
10041;SDS011;5061;49.068;12.058;2022-12-07T11:02:54;13.87;;;7.93;;
10041;SDS011;5061;49.068;12.058;2022-12-07T11:10:26;14.10;;;8.50;;
10041;SDS011;5061;49.068;12.058;2022-12-07T11:39:43;13.23;;;6.70;;
10041;SDS011;5061;49.068;12.058;2022-12-07T11:46:57;9.50;;;6.73;;
10041;SDS011;5061;49.068;12.058;2022-12-07T11:50:30;12.03;;;7.40;;
10041;SDS011;5061;49.068;12.058;2022-12-07T11:53:59;11.97;;;7.43;;
10041;SDS011;5061;49.068;12.058;2022-12-07T11:57:32;12.80;;;8.00;;
10041;SDS011;5061;49.068;12.058;2022-12-07T12:01:06;10.93;;;6.70;;
10041;SDS011;5061;49.068;12.058;2022-12-07T12:04:54;14.00;;;7.70;;
10041;SDS011;5061;49.068;12.058;2022-12-07T12:08:33;12.00;;;7.17;;
10041;SDS011;5061;49.068;12.058;2022-12-07T12:19:23;12.63;;;7.73;;
10041;SDS011;5061;49.068;12.058;2022-12-07T12:23:07;10.47;;;6.70;;
10041;SDS011;5061;49.068;12.058;2022-12-07T12:26:33;12.00;;;7.10;;
10041;SDS011;5061;49.068;12.058;2022-12-07T12:29:57;13.73;;;7.30;;
10041;SDS011;5061;49.068;12.058;2022-12-07T12:33:25;10.97;;;6.57;;
10041;SDS011;5061;49.068;12.058;2022-12-07T12:36:49;11.10;;;7.13;;
10041;SDS011;5061;49.068;12.058;2022-12-07T12:43:47;11.23;;;6.70;;
10041;SDS011;5061;49.068;12.058;2022-12-07T12:51:35;11.23;;;6.77;;
10041;SDS011;5061;49.068;12.058;2022-12-07T12:55:00;9.40;;;5.97;;
10041;SDS011;5061;49.068;12.058;2022-12-07T12:58:42;14.20;;;7.80;;
10041;SDS011;5061;49.068;12.058;2022-12-07T13:02:16;10.90;;;7.30;;
10041;SDS011;5061;49.068;12.058;2022-12-07T13:05:40;12.03;;;6.87;;
10041;SDS011;5061;49.068;12.058;2022-12-07T13:09:01;9.30;;;6.17;;
10041;SDS011;5061;49.068;12.058;2022-12-07T13:12:24;11.10;;;7.23;;
10041;SDS011;5061;49.068;12.058;2022-12-07T13:23:01;12.40;;;7.17;;
10041;SDS011;5061;49.068;12.058;2022-12-07T13:29:54;12.17;;;7.10;;
10041;SDS011;5061;49.068;12.058;2022-12-07T13:33:17;10.17;;;5.97;;
10041;SDS011;5061;49.068;12.058;2022-12-07T13:36:39;11.33;;;6.77;;
10041;SDS011;5061;49.068;12.058;2022-12-07T13:40:19;10.03;;;6.70;;
10041;SDS011;5061;49.068;12.058;2022-12-07T13:47:17;12.13;;;6.00;;
10041;SDS011;5061;49.068;12.058;2022-12-07T13:51:27;8.30;;;6.17;;
10041;SDS011;5061;49.068;12.058;2022-12-07T13:54:49;11.77;;;6.47;;
10041;SDS011;5061;49.068;12.058;2022-12-07T13:58:16;10.03;;;7.23;;
10041;SDS011;5061;49.068;12.058;2022-12-07T14:01:37;8.33;;;5.80;;
10041;SDS011;5061;49.068;12.058;2022-12-07T14:05:08;14.37;;;7.67;;
10041;SDS011;5061;49.068;12.058;2022-12-07T14:08:49;10.40;;;6.40;;
10041;SDS011;5061;49.068;12.058;2022-12-07T14:12:11;8.43;;;5.50;;
10041;SDS011;5061;49.068;12.058;2022-12-07T14:15:33;11.67;;;7.30;;
10041;SDS011;5061;49.068;12.058;2022-12-07T14:18:59;9.47;;;5.87;;
10041;SDS011;5061;49.068;12.058;2022-12-07T14:22:23;10.10;;;6.27;;
10041;SDS011;5061;49.068;12.058;2022-12-07T14:25:46;9.47;;;6.20;;
10041;SDS011;5061;49.068;12.058;2022-12-07T14:29:30;11.13;;;6.63;;
10041;SDS011;5061;49.068;12.058;2022-12-07T14:32:54;11.90;;;6.77;;
10041;SDS011;5061;49.068;12.058;2022-12-07T14:36:18;13.53;;;7.27;;
10041;SDS011;5061;49.068;12.058;2022-12-07T14:39:39;9.70;;;5.87;;
10041;SDS011;5061;49.068;12.058;2022-12-07T14:43:06;11.03;;;6.47;;
10041;SDS011;5061;49.068;12.058;2022-12-07T14:46:34;10.33;;;6.00;;
10041;SDS011;5061;49.068;12.058;2022-12-07T14:49:55;9.57;;;5.97;;
10041;SDS011;5061;49.068;12.058;2022-12-07T14:53:18;9.20;;;6.13;;
10041;SDS011;5061;49.068;12.058;2022-12-07T14:56:47;9.73;;;6.30;;
10041;SDS011;5061;49.068;12.058;2022-12-07T15:00:14;8.97;;;5.07;;
10041;SDS011;5061;49.068;12.058;2022-12-07T15:03:37;6.70;;;4.80;;
10041;SDS011;5061;49.068;12.058;2022-12-07T15:06:59;8.60;;;5.67;;
10041;SDS011;5061;49.068;12.058;2022-12-07T15:10:24;9.27;;;5.80;;
10041;SDS011;5061;49.068;12.058;2022-12-07T15:13:54;8.63;;;5.70;;
10041;SDS011;5061;49.068;12.058;2022-12-07T15:17:33;8.90;;;5.93;;
10041;SDS011;5061;49.068;12.058;2022-12-07T15:20:57;10.47;;;6.00;;
10041;SDS011;5061;49.068;12.058;2022-12-07T15:24:19;9.20;;;5.53;;
10041;SDS011;5061;49.068;12.058;2022-12-07T15:27:40;9.43;;;5.80;;
10041;SDS011;5061;49.068;12.058;2022-12-07T15:31:01;10.23;;;6.20;;
10041;SDS011;5061;49.068;12.058;2022-12-07T15:34:22;10.80;;;6.40;;
10041;SDS011;5061;49.068;12.058;2022-12-07T15:37:45;8.53;;;5.53;;
10041;SDS011;5061;49.068;12.058;2022-12-07T15:41:06;9.83;;;5.90;;
10041;SDS011;5061;49.068;12.058;2022-12-07T15:44:27;8.40;;;6.17;;
10041;SDS011;5061;49.068;12.058;2022-12-07T15:48:06;7.47;;;5.27;;
10041;SDS011;5061;49.068;12.058;2022-12-07T15:51:27;10.50;;;5.60;;
10041;SDS011;5061;49.068;12.058;2022-12-07T15:54:48;9.40;;;6.40;;
10041;SDS011;5061;49.068;12.058;2022-12-07T15:58:08;9.30;;;6.23;;
10041;SDS011;5061;49.068;12.058;2022-12-07T16:01:29;8.07;;;5.53;;
10041;SDS011;5061;49.068;12.058;2022-12-07T16:04:50;12.07;;;6.30;;
10041;SDS011;5061;49.068;12.058;2022-12-07T16:08:11;9.60;;;6.13;;
10041;SDS011;5061;49.068;12.058;2022-12-07T16:11:33;9.93;;;6.00;;
10041;SDS011;5061;49.068;12.058;2022-12-07T16:14:54;11.50;;;6.00;;
10041;SDS011;5061;49.068;12.058;2022-12-07T16:18:14;9.83;;;6.60;;
10041;SDS011;5061;49.068;12.058;2022-12-07T16:21:35;10.43;;;7.00;;
10041;SDS011;5061;49.068;12.058;2022-12-07T16:24:56;16.30;;;7.13;;
10041;SDS011;5061;49.068;12.058;2022-12-07T16:28:16;9.73;;;6.20;;
10041;SDS011;5061;49.068;12.058;2022-12-07T16:31:37;10.43;;;6.43;;
10041;SDS011;5061;49.068;12.058;2022-12-07T16:34:57;11.47;;;6.37;;
10041;SDS011;5061;49.068;12.058;2022-12-07T16:38:18;8.20;;;5.73;;
10041;SDS011;5061;49.068;12.058;2022-12-07T16:41:39;11.23;;;6.67;;
10041;SDS011;5061;49.068;12.058;2022-12-07T16:44:59;11.60;;;6.63;;
10041;SDS011;5061;49.068;12.058;2022-12-07T16:48:21;8.80;;;5.87;;
10041;SDS011;5061;49.068;12.058;2022-12-07T16:51:45;7.70;;;5.77;;
10041;SDS011;5061;49.068;12.058;2022-12-07T16:55:07;9.30;;;6.33;;
10041;SDS011;5061;49.068;12.058;2022-12-07T16:58:28;9.77;;;6.53;;
10041;SDS011;5061;49.068;12.058;2022-12-07T17:01:48;9.90;;;6.20;;
10041;SDS011;5061;49.068;12.058;2022-12-07T17:05:09;7.93;;;5.13;;
10041;SDS011;5061;49.068;12.058;2022-12-07T17:08:29;11.10;;;6.77;;
10041;SDS011;5061;49.068;12.058;2022-12-07T17:11:50;11.60;;;6.33;;
10041;SDS011;5061;49.068;12.058;2022-12-07T17:15:11;18.13;;;6.33;;
10041;SDS011;5061;49.068;12.058;2022-12-07T17:18:37;10.97;;;7.27;;
10041;SDS011;5061;49.068;12.058;2022-12-07T17:21:58;10.80;;;6.10;;
10041;SDS011;5061;49.068;12.058;2022-12-07T17:25:19;9.37;;;6.30;;
10041;SDS011;5061;49.068;12.058;2022-12-07T17:28:40;9.07;;;6.50;;
10041;SDS011;5061;49.068;12.058;2022-12-07T17:32:01;8.63;;;6.10;;
10041;SDS011;5061;49.068;12.058;2022-12-07T17:35:22;10.37;;;7.07;;
10041;SDS011;5061;49.068;12.058;2022-12-07T17:38:43;10.00;;;6.93;;
10041;SDS011;5061;49.068;12.058;2022-12-07T17:42:04;11.00;;;7.17;;
10041;SDS011;5061;49.068;12.058;2022-12-07T17:45:43;12.63;;;7.67;;
10041;SDS011;5061;49.068;12.058;2022-12-07T17:49:04;11.00;;;6.50;;
10041;SDS011;5061;49.068;12.058;2022-12-07T17:52:25;11.13;;;6.90;;
10041;SDS011;5061;49.068;12.058;2022-12-07T17:56:04;10.00;;;6.43;;
10041;SDS011;5061;49.068;12.058;2022-12-07T17:59:28;13.63;;;8.10;;
10041;SDS011;5061;49.068;12.058;2022-12-07T18:02:49;11.67;;;7.53;;
10041;SDS011;5061;49.068;12.058;2022-12-07T18:06:09;9.07;;;6.80;;
10041;SDS011;5061;49.068;12.058;2022-12-07T18:09:30;11.83;;;7.90;;
10041;SDS011;5061;49.068;12.058;2022-12-07T18:12:50;12.63;;;8.10;;
10041;SDS011;5061;49.068;12.058;2022-12-07T18:16:31;13.50;;;8.00;;
10041;SDS011;5061;49.068;12.058;2022-12-07T18:19:54;13.80;;;8.40;;
10041;SDS011;5061;49.068;12.058;2022-12-07T18:23:14;14.90;;;9.27;;
10041;SDS011;5061;49.068;12.058;2022-12-07T18:26:35;13.40;;;8.20;;
10041;SDS011;5061;49.068;12.058;2022-12-07T18:29:56;13.53;;;8.20;;
10041;SDS011;5061;49.068;12.058;2022-12-07T18:33:19;13.07;;;7.70;;
10041;SDS011;5061;49.068;12.058;2022-12-07T18:36:41;9.50;;;7.20;;
10041;SDS011;5061;49.068;12.058;2022-12-07T18:40:05;11.77;;;7.67;;
10041;SDS011;5061;49.068;12.058;2022-12-07T18:43:26;10.30;;;7.00;;
10041;SDS011;5061;49.068;12.058;2022-12-07T18:46:47;13.10;;;7.43;;
10041;SDS011;5061;49.068;12.058;2022-12-07T18:50:07;10.63;;;6.93;;
10041;SDS011;5061;49.068;12.058;2022-12-07T18:53:28;9.53;;;6.83;;
10041;SDS011;5061;49.068;12.058;2022-12-07T18:56:49;7.13;;;5.47;;
10041;SDS011;5061;49.068;12.058;2022-12-07T19:00:10;7.50;;;4.67;;
10041;SDS011;5061;49.068;12.058;2022-12-07T19:03:31;5.97;;;4.60;;
10041;SDS011;5061;49.068;12.058;2022-12-07T19:06:52;6.97;;;4.20;;
10041;SDS011;5061;49.068;12.058;2022-12-07T19:10:13;6.93;;;4.77;;
10041;SDS011;5061;49.068;12.058;2022-12-07T19:13:33;6.90;;;4.20;;
10041;SDS011;5061;49.068;12.058;2022-12-07T19:16:55;6.27;;;3.00;;
10041;SDS011;5061;49.068;12.058;2022-12-07T19:20:18;5.70;;;4.10;;
10041;SDS011;5061;49.068;12.058;2022-12-07T19:23:38;3.73;;;2.90;;
10041;SDS011;5061;49.068;12.058;2022-12-07T19:26:59;5.80;;;3.87;;
10041;SDS011;5061;49.068;12.058;2022-12-07T19:30:23;5.27;;;3.70;;
10041;SDS011;5061;49.068;12.058;2022-12-07T19:33:43;5.10;;;3.60;;
10041;SDS011;5061;49.068;12.058;2022-12-07T19:37:04;5.73;;;3.93;;
10041;SDS011;5061;49.068;12.058;2022-12-07T19:40:28;6.90;;;4.03;;
10041;SDS011;5061;49.068;12.058;2022-12-07T19:43:49;7.33;;;4.50;;
10041;SDS011;5061;49.068;12.058;2022-12-07T19:47:09;6.60;;;4.47;;
10041;SDS011;5061;49.068;12.058;2022-12-07T19:50:31;8.13;;;4.43;;
10041;SDS011;5061;49.068;12.058;2022-12-07T19:53:55;6.73;;;4.47;;
10041;SDS011;5061;49.068;12.058;2022-12-07T19:57:19;6.27;;;4.00;;
10041;SDS011;5061;49.068;12.058;2022-12-07T20:00:40;6.27;;;4.00;;
10041;SDS011;5061;49.068;12.058;2022-12-07T20:04:03;7.70;;;5.43;;
10041;SDS011;5061;49.068;12.058;2022-12-07T20:07:25;14.80;;;8.17;;
10041;SDS011;5061;49.068;12.058;2022-12-07T20:10:48;9.20;;;6.33;;
10041;SDS011;5061;49.068;12.058;2022-12-07T20:14:10;10.77;;;7.10;;
10041;SDS011;5061;49.068;12.058;2022-12-07T20:17:34;13.00;;;7.73;;
10041;SDS011;5061;49.068;12.058;2022-12-07T20:20:55;11.57;;;8.10;;
10041;SDS011;5061;49.068;12.058;2022-12-07T20:24:18;13.33;;;9.77;;
10041;SDS011;5061;49.068;12.058;2022-12-07T20:27:43;16.20;;;9.07;;
10041;SDS011;5061;49.068;12.058;2022-12-07T20:31:04;11.87;;;8.40;;
10041;SDS011;5061;49.068;12.058;2022-12-07T20:34:24;12.97;;;8.27;;
10041;SDS011;5061;49.068;12.058;2022-12-07T20:37:47;12.53;;;7.93;;
10041;SDS011;5061;49.068;12.058;2022-12-07T20:41:12;10.93;;;7.67;;
10041;SDS011;5061;49.068;12.058;2022-12-07T20:44:52;12.33;;;8.10;;
10041;SDS011;5061;49.068;12.058;2022-12-07T20:48:13;13.93;;;7.97;;
10041;SDS011;5061;49.068;12.058;2022-12-07T20:51:34;14.27;;;8.20;;
10041;SDS011;5061;49.068;12.058;2022-12-07T20:54:55;10.90;;;6.10;;
10041;SDS011;5061;49.068;12.058;2022-12-07T20:58:15;10.50;;;6.00;;
10041;SDS011;5061;49.068;12.058;2022-12-07T21:01:39;8.20;;;5.87;;
10041;SDS011;5061;49.068;12.058;2022-12-07T21:04:59;7.20;;;4.70;;
10041;SDS011;5061;49.068;12.058;2022-12-07T21:08:20;5.37;;;4.07;;
10041;SDS011;5061;49.068;12.058;2022-12-07T21:11:44;6.17;;;4.00;;
10041;SDS011;5061;49.068;12.058;2022-12-07T21:15:05;4.60;;;3.53;;
10041;SDS011;5061;49.068;12.058;2022-12-07T21:18:26;5.23;;;3.20;;
10041;SDS011;5061;49.068;12.058;2022-12-07T21:21:51;6.13;;;3.93;;
10041;SDS011;5061;49.068;12.058;2022-12-07T21:25:12;6.60;;;4.17;;
10041;SDS011;5061;49.068;12.058;2022-12-07T21:28:35;5.40;;;3.63;;
10041;SDS011;5061;49.068;12.058;2022-12-07T21:31:56;4.63;;;3.53;;
10041;SDS011;5061;49.068;12.058;2022-12-07T21:35:17;4.73;;;3.40;;
10041;SDS011;5061;49.068;12.058;2022-12-07T21:38:37;4.97;;;3.17;;
10041;SDS011;5061;49.068;12.058;2022-12-07T21:41:58;4.40;;;3.20;;
10041;SDS011;5061;49.068;12.058;2022-12-07T21:45:18;3.90;;;2.90;;
10041;SDS011;5061;49.068;12.058;2022-12-07T21:48:40;6.00;;;4.00;;
10041;SDS011;5061;49.068;12.058;2022-12-07T21:52:14;6.23;;;3.50;;
10041;SDS011;5061;49.068;12.058;2022-12-07T21:55:38;5.90;;;3.60;;
10041;SDS011;5061;49.068;12.058;2022-12-07T21:59:03;6.30;;;4.50;;
10041;SDS011;5061;49.068;12.058;2022-12-07T22:02:33;7.63;;;4.40;;
10041;SDS011;5061;49.068;12.058;2022-12-07T22:06:00;7.73;;;4.87;;
10041;SDS011;5061;49.068;12.058;2022-12-07T22:09:21;8.27;;;4.57;;